createdAt,value
2022-12-18T00:01:21.593Z,9.55
2022-12-18T00:03:49.707Z,11.27
2022-12-18T00:06:17.610Z,11.52
2022-12-18T00:08:45.679Z,11.45
2022-12-18T00:11:14.621Z,9.60
2022-12-18T00:13:43.957Z,10.20
2022-12-18T00:16:12.370Z,12.75
2022-12-18T00:18:40.453Z,10.05
2022-12-18T00:21:10.028Z,12.65
2022-12-18T00:23:38.816Z,11.15
2022-12-18T00:26:07.686Z,13.43
2022-12-18T00:28:35.451Z,12.43
2022-12-18T00:31:04.674Z,12.82
2022-12-18T00:33:32.266Z,12.55
2022-12-18T00:36:02.285Z,12.20
2022-12-18T00:38:29.815Z,12.27
2022-12-18T00:40:57.334Z,13.30
2022-12-18T00:43:24.079Z,12.48
2022-12-18T00:45:51.872Z,11.93
2022-12-18T00:48:20.815Z,10.50
2022-12-18T00:50:49.531Z,12.32
2022-12-18T00:53:17.064Z,12.05
2022-12-18T00:55:45.103Z,11.60
2022-12-18T00:58:16.858Z,11.13
2022-12-18T01:00:44.690Z,10.48
2022-12-18T01:03:14.687Z,10.95
2022-12-18T01:05:43.886Z,11.65
2022-12-18T01:08:11.516Z,10.90
2022-12-18T01:10:42.184Z,11.90
2022-12-18T01:13:10.149Z,12.57
2022-12-18T01:15:37.793Z,13.20
2022-12-18T01:18:05.392Z,13.48
2022-12-18T01:20:32.902Z,12.65
2022-12-18T01:23:02.796Z,13.38
2022-12-18T01:25:30.306Z,11.75
2022-12-18T01:28:00.071Z,13.57
2022-12-18T01:30:27.562Z,12.15
2022-12-18T01:32:55.038Z,11.30
2022-12-18T01:35:22.584Z,12.05
2022-12-18T01:37:50.054Z,12.63
2022-12-18T01:40:22.732Z,15.48
2022-12-18T01:42:51.998Z,13.57
2022-12-18T01:45:27.338Z,14.05
2022-12-18T01:47:57.428Z,13.38
2022-12-18T01:50:29.429Z,12.93
2022-12-18T01:53:00.088Z,12.77
2022-12-18T01:55:31.063Z,12.57
2022-12-18T01:57:59.613Z,11.60
2022-12-18T02:00:27.808Z,12.75
2022-12-18T02:02:57.508Z,12.75
2022-12-18T02:05:46.986Z,12.48
2022-12-18T02:08:27.188Z,14.75
2022-12-18T02:11:04.524Z,12.10
2022-12-18T02:13:37.577Z,11.38
2022-12-18T02:16:08.204Z,12.18
2022-12-18T02:18:37.249Z,11.85
2022-12-18T02:21:13.903Z,12.88
2022-12-18T02:23:53.772Z,11.45
2022-12-18T02:26:28.334Z,12.05
2022-12-18T02:29:01.829Z,11.75
2022-12-18T02:31:30.571Z,11.85
2022-12-18T02:33:59.702Z,11.23
2022-12-18T02:36:28.755Z,13.02
2022-12-18T02:38:57.196Z,10.27
2022-12-18T02:41:30.634Z,12.18
2022-12-18T02:44:02.549Z,10.15
2022-12-18T02:46:32.946Z,11.63
2022-12-18T02:49:05.864Z,9.93
2022-12-18T02:51:37.059Z,10.73
2022-12-18T02:54:07.613Z,10.52
2022-12-18T02:56:39.534Z,11.02
2022-12-18T02:59:13.492Z,10.88
2022-12-18T03:04:11.083Z,9.20
2022-12-18T03:06:41.647Z,10.07
2022-12-18T03:09:11.088Z,12.15
2022-12-18T03:12:08.071Z,10.75
2022-12-18T03:14:41.831Z,10.20
2022-12-18T03:17:14.327Z,9.40
2022-12-18T03:19:42.450Z,9.70
2022-12-18T03:22:09.963Z,10.82
2022-12-18T03:24:40.511Z,8.98
2022-12-18T03:27:10.851Z,10.05
2022-12-18T03:29:41.086Z,11.00
2022-12-18T03:32:17.227Z,10.27
2022-12-18T03:34:53.644Z,10.98
2022-12-18T03:37:23.237Z,9.77
2022-12-18T03:39:52.724Z,11.18
2022-12-18T03:42:26.153Z,9.52
2022-12-18T03:44:56.953Z,9.98
2022-12-18T03:47:30.313Z,7.88
2022-12-18T03:49:59.826Z,8.48
2022-12-18T03:52:28.895Z,8.80
2022-12-18T03:54:57.409Z,9.57
2022-12-18T03:57:28.444Z,9.02
2022-12-18T03:59:57.936Z,9.57
2022-12-18T04:02:26.215Z,9.50
2022-12-18T04:04:54.586Z,10.05
2022-12-18T04:07:23.560Z,9.13
2022-12-18T04:09:53.104Z,9.88
2022-12-18T04:12:20.550Z,8.70
2022-12-18T04:14:49.458Z,11.02
2022-12-18T04:17:17.096Z,8.73
2022-12-18T04:19:44.567Z,8.68
2022-12-18T04:22:12.247Z,8.45
2022-12-18T04:24:39.837Z,8.40
2022-12-18T04:27:07.353Z,8.13
2022-12-18T04:29:34.827Z,9.23
2022-12-18T04:32:03.688Z,8.90
2022-12-18T04:34:31.562Z,9.68
2022-12-18T04:36:59.100Z,9.23
2022-12-18T04:39:26.758Z,8.60
2022-12-18T04:41:54.300Z,8.07
2022-12-18T04:44:21.794Z,6.80
2022-12-18T04:46:49.321Z,9.68
2022-12-18T04:49:18.242Z,8.50
2022-12-18T04:51:45.752Z,7.97
2022-12-18T04:54:13.227Z,9.52
2022-12-18T04:56:40.817Z,8.45
2022-12-18T04:59:08.328Z,8.75
2022-12-18T05:01:35.940Z,8.25
2022-12-18T05:04:03.656Z,8.45
2022-12-18T05:06:32.505Z,8.77
2022-12-18T05:09:00.506Z,7.97
2022-12-18T05:11:28.050Z,8.80
2022-12-18T05:13:58.339Z,8.85
2022-12-18T05:16:26.067Z,7.43
2022-12-18T05:18:53.628Z,9.65
2022-12-18T05:21:21.136Z,8.38
2022-12-18T05:23:50.018Z,7.60
2022-12-18T05:26:19.607Z,6.80
2022-12-18T05:28:47.221Z,8.18
2022-12-18T05:31:14.833Z,8.15
2022-12-18T05:33:42.813Z,8.77
2022-12-18T05:36:12.217Z,7.85
2022-12-18T05:38:40.523Z,8.55
2022-12-18T05:41:09.684Z,7.65
2022-12-18T05:43:38.126Z,7.68
2022-12-18T05:46:06.893Z,8.07
2022-12-18T05:48:34.546Z,8.60
2022-12-18T05:51:05.715Z,8.85
2022-12-18T05:53:36.016Z,8.15
2022-12-18T05:56:03.858Z,9.50
2022-12-18T05:58:34.972Z,8.50
2022-12-18T06:01:08.481Z,7.60
2022-12-18T06:03:38.698Z,8.15
2022-12-18T06:06:10.350Z,7.78
2022-12-18T06:08:46.009Z,7.93
2022-12-18T06:11:16.470Z,6.25
2022-12-18T06:13:53.483Z,7.53
2022-12-18T06:16:23.871Z,7.93
2022-12-18T06:18:53.503Z,7.32
2022-12-18T06:21:20.986Z,7.50
2022-12-18T06:23:50.432Z,7.72
2022-12-18T06:26:20.177Z,6.80
2022-12-18T06:28:52.335Z,7.57
2022-12-18T06:31:22.569Z,6.53
2022-12-18T06:33:50.134Z,8.13
2022-12-18T06:36:18.183Z,9.23
2022-12-18T06:38:48.497Z,7.32
2022-12-18T06:41:19.097Z,7.65
2022-12-18T06:43:55.549Z,6.75
2022-12-18T06:46:32.248Z,7.82
2022-12-18T06:49:05.605Z,6.93
2022-12-18T06:51:33.136Z,8.05
2022-12-18T06:54:00.863Z,6.07
2022-12-18T06:56:29.454Z,6.50
2022-12-18T06:58:57.010Z,8.48
2022-12-18T07:01:25.055Z,6.75
2022-12-18T07:03:59.933Z,8.73
2022-12-18T07:06:29.234Z,8.05
2022-12-18T07:08:57.208Z,8.70
2022-12-18T07:11:26.009Z,6.82
2022-12-18T07:13:56.711Z,8.75
2022-12-18T07:16:25.582Z,7.60
2022-12-18T07:18:53.517Z,7.93
2022-12-18T07:21:22.527Z,7.25
2022-12-18T07:23:52.749Z,8.18
2022-12-18T07:26:45.930Z,7.25
2022-12-18T07:29:20.143Z,8.20
2022-12-18T07:31:47.793Z,7.65
2022-12-18T07:34:16.094Z,7.05
2022-12-18T07:36:47.224Z,8.45
2022-12-18T07:39:15.302Z,7.80
2022-12-18T07:41:47.479Z,7.22
2022-12-18T07:44:15.628Z,7.95
2022-12-18T07:46:45.116Z,6.30
2022-12-18T07:49:15.789Z,6.25
2022-12-18T07:51:43.346Z,9.10
2022-12-18T07:54:12.325Z,6.70
2022-12-18T07:56:39.942Z,7.40
2022-12-18T07:59:07.394Z,8.15
2022-12-18T08:01:35.569Z,6.53
2022-12-18T08:04:03.361Z,7.15
2022-12-18T08:06:30.896Z,8.15
2022-12-18T08:08:59.464Z,7.13
2022-12-18T08:11:28.893Z,7.78
2022-12-18T08:13:56.732Z,8.35
2022-12-18T08:16:24.619Z,7.63
2022-12-18T08:18:53.402Z,7.35
2022-12-18T08:21:24.062Z,7.43
2022-12-18T08:23:52.343Z,7.32
2022-12-18T08:26:20.892Z,7.00
2022-12-18T08:28:51.253Z,7.10
2022-12-18T08:31:19.375Z,6.95
2022-12-18T08:33:47.161Z,6.85
2022-12-18T08:36:14.684Z,6.82
2022-12-18T08:38:42.266Z,6.38
2022-12-18T08:41:10.963Z,6.38
2022-12-18T08:43:55.973Z,7.38
2022-12-18T08:46:29.037Z,8.65
2022-12-18T08:48:57.479Z,6.47
2022-12-18T08:51:25.207Z,7.90
2022-12-18T08:53:53.496Z,6.93
2022-12-18T08:56:21.247Z,6.45
2022-12-18T08:58:48.876Z,7.10
2022-12-18T09:01:19.711Z,8.05
2022-12-18T09:03:52.162Z,6.80
2022-12-18T09:06:20.776Z,6.93
2022-12-18T09:08:48.371Z,6.70
2022-12-18T09:11:17.112Z,6.18
2022-12-18T09:13:44.881Z,6.20
2022-12-18T09:16:12.469Z,6.40
2022-12-18T09:18:44.313Z,5.70
2022-12-18T09:21:17.414Z,7.07
2022-12-18T09:23:46.677Z,5.70
2022-12-18T09:26:14.218Z,5.50
2022-12-18T09:28:45.824Z,6.63
2022-12-18T09:31:14.403Z,5.68
2022-12-18T09:33:42.453Z,5.30
2022-12-18T09:36:11.604Z,6.97
2022-12-18T09:38:41.236Z,5.88
2022-12-18T09:41:19.547Z,5.75
2022-12-18T09:43:48.277Z,5.15
2022-12-18T09:46:19.878Z,5.90
2022-12-18T09:48:49.257Z,6.40
2022-12-18T09:51:17.671Z,6.07
2022-12-18T09:53:49.356Z,6.80
2022-12-18T09:56:19.653Z,5.93
2022-12-18T09:58:49.792Z,5.85
2022-12-18T10:01:20.557Z,4.25
2022-12-18T10:03:48.211Z,5.68
2022-12-18T10:06:17.217Z,4.78
2022-12-18T10:08:47.911Z,5.53
2022-12-18T10:11:26.194Z,6.13
2022-12-18T10:13:55.515Z,5.22
2022-12-18T10:16:30.098Z,5.70
2022-12-18T10:19:04.327Z,5.05
2022-12-18T10:21:34.119Z,6.38
2022-12-18T10:24:05.469Z,6.88
2022-12-18T10:26:38.063Z,5.65
2022-12-18T10:29:06.633Z,4.95
2022-12-18T10:31:34.245Z,5.30
2022-12-18T10:34:01.921Z,6.70
2022-12-18T10:36:29.558Z,5.78
2022-12-18T10:39:15.754Z,5.70
2022-12-18T10:41:44.705Z,5.55
2022-12-18T10:44:13.708Z,5.68
2022-12-18T10:46:41.366Z,6.20
2022-12-18T10:49:20.371Z,5.47
2022-12-18T10:51:47.822Z,5.45
2022-12-18T10:54:19.162Z,5.90
2022-12-18T10:56:53.198Z,5.13
2022-12-18T10:59:22.140Z,5.03
2022-12-18T11:02:03.257Z,5.32
2022-12-18T11:04:31.591Z,4.95
2022-12-18T11:07:00.673Z,6.10
2022-12-18T11:09:28.992Z,6.85
2022-12-18T11:12:00.147Z,5.95
2022-12-18T11:14:33.221Z,6.70
2022-12-18T11:19:55.602Z,5.38
2022-12-18T11:25:30.341Z,6.75
2022-12-18T11:27:53.440Z,6.07
2022-12-18T11:30:25.176Z,5.57
2022-12-18T11:32:54.338Z,6.70
2022-12-18T11:35:23.958Z,7.40
2022-12-18T11:37:55.391Z,5.43
2022-12-18T11:40:28.629Z,6.43
2022-12-18T11:43:00.469Z,5.55
2022-12-18T11:45:32.602Z,6.22
2022-12-18T11:48:02.919Z,5.22
2022-12-18T11:50:33.586Z,5.80
2022-12-18T11:53:05.628Z,5.22
2022-12-18T11:55:37.884Z,7.07
2022-12-18T11:58:09.813Z,5.70
2022-12-18T12:00:40.053Z,5.57
2022-12-18T12:03:18.233Z,5.65
2022-12-18T12:05:52.155Z,5.40
2022-12-18T12:08:30.429Z,5.38
2022-12-18T12:11:01.888Z,5.85
2022-12-18T12:13:40.804Z,6.32
2022-12-18T12:16:16.958Z,5.05
2022-12-18T12:19:01.965Z,6.00
2022-12-18T12:21:30.911Z,4.97
2022-12-18T12:24:02.525Z,5.20
2022-12-18T12:26:35.619Z,5.63
2022-12-18T12:29:10.757Z,4.32
2022-12-18T12:31:47.322Z,5.15
2022-12-18T12:34:22.013Z,5.43
2022-12-18T12:37:00.971Z,5.35
2022-12-18T12:39:31.329Z,5.68
2022-12-18T12:42:22.524Z,5.80
2022-12-18T12:44:56.332Z,4.78
2022-12-18T12:47:42.612Z,5.68
2022-12-18T12:50:15.103Z,4.80
2022-12-18T12:52:44.918Z,4.72
2022-12-18T12:55:16.314Z,5.55
2022-12-18T12:57:45.637Z,5.18
2022-12-18T13:00:17.509Z,6.55
2022-12-18T13:02:57.658Z,5.22
2022-12-18T13:05:34.424Z,5.10
2022-12-18T13:08:07.676Z,5.90
2022-12-18T13:10:36.100Z,5.75
2022-12-18T13:13:04.003Z,4.70
2022-12-18T13:15:36.819Z,4.32
2022-12-18T13:18:22.880Z,5.32
2022-12-18T13:21:03.945Z,4.80
2022-12-18T13:23:38.097Z,4.25
2022-12-18T13:26:28.772Z,4.47
2022-12-18T13:29:02.878Z,5.43
2022-12-18T13:34:25.641Z,4.38
2022-12-18T13:36:55.041Z,5.40
2022-12-18T13:39:35.226Z,4.90
2022-12-18T13:42:36.118Z,4.90
2022-12-18T13:45:21.358Z,4.15
2022-12-18T13:47:51.049Z,5.78
2022-12-18T13:50:25.056Z,5.05
2022-12-18T13:52:53.227Z,5.40
2022-12-18T13:55:21.663Z,5.40
2022-12-18T13:57:49.142Z,5.72
2022-12-18T14:00:32.008Z,7.13
2022-12-18T14:03:04.167Z,5.68
2022-12-18T14:05:40.267Z,5.53
2022-12-18T14:08:24.017Z,6.13
2022-12-18T14:10:54.090Z,5.32
2022-12-18T14:13:29.070Z,5.28
2022-12-18T14:16:15.795Z,5.93
2022-12-18T14:18:53.802Z,4.85
2022-12-18T14:21:36.639Z,6.65
2022-12-18T14:24:08.428Z,4.57
2022-12-18T14:26:38.174Z,5.32
2022-12-18T14:29:25.724Z,5.45
2022-12-18T14:32:13.351Z,3.83
2022-12-18T14:34:49.660Z,4.78
2022-12-18T14:37:21.984Z,4.95
2022-12-18T14:39:57.657Z,4.70
2022-12-18T14:42:28.881Z,3.63
2022-12-18T14:45:14.944Z,5.35
2022-12-18T14:47:49.497Z,4.57
2022-12-18T14:50:17.223Z,4.35
2022-12-18T14:52:55.628Z,5.00
2022-12-18T14:55:23.629Z,3.90
2022-12-18T14:57:52.895Z,4.22
2022-12-18T15:00:25.025Z,4.43
2022-12-18T15:03:19.452Z,4.80
2022-12-18T15:05:45.361Z,4.32
2022-12-18T15:08:29.753Z,3.63
2022-12-18T15:11:01.798Z,4.55
2022-12-18T15:13:29.850Z,4.80
2022-12-18T15:16:23.974Z,5.63
2022-12-18T15:19:10.181Z,5.10
2022-12-18T15:21:45.096Z,5.25
2022-12-18T15:24:18.900Z,5.30
2022-12-18T15:26:50.902Z,4.70
2022-12-18T15:29:21.025Z,5.03
2022-12-18T15:32:02.475Z,5.90
2022-12-18T15:34:30.284Z,5.00
2022-12-18T15:36:58.241Z,4.90
2022-12-18T15:39:30.249Z,5.82
2022-12-18T15:42:20.304Z,5.13
2022-12-18T15:44:48.293Z,4.60
2022-12-18T15:47:15.938Z,5.40
2022-12-18T15:49:43.496Z,4.78
2022-12-18T15:52:15.599Z,4.85
2022-12-18T15:55:04.400Z,5.28
2022-12-18T16:00:35.165Z,4.07
2022-12-18T16:03:06.737Z,3.67
2022-12-18T16:05:34.873Z,4.13
2022-12-18T16:08:04.965Z,3.70
2022-12-18T16:10:54.781Z,3.83
2022-12-18T16:17:17.080Z,3.33
2022-12-18T16:19:51.289Z,3.20
2022-12-18T16:25:42.574Z,3.10
2022-12-18T16:28:23.400Z,3.85
2022-12-18T16:30:54.328Z,4.20
2022-12-18T16:31:32.808Z,5.43
2022-12-18T16:33:23.275Z,4.60
2022-12-18T16:36:00.252Z,3.50
2022-12-18T16:38:42.762Z,4.32
2022-12-18T16:41:34.351Z,4.78
2022-12-18T16:44:02.755Z,4.32
2022-12-18T16:46:30.502Z,4.50
2022-12-18T16:49:09.323Z,5.13
2022-12-18T16:51:52.546Z,5.30
2022-12-18T16:54:25.282Z,6.43
2022-12-18T16:56:53.502Z,4.80
2022-12-18T16:59:21.091Z,5.15
2022-12-18T17:08:16.763Z,3.78
2022-12-18T17:16:32.109Z,4.60
2022-12-18T17:19:00.527Z,5.03
2022-12-18T17:21:30.070Z,4.72
2022-12-18T17:24:00.514Z,4.00
2022-12-18T17:26:28.004Z,4.43
2022-12-18T17:29:01.342Z,3.92
2022-12-18T17:31:30.235Z,4.38
2022-12-18T17:33:58.308Z,4.57
2022-12-18T17:36:28.600Z,4.47
2022-12-18T17:38:56.866Z,5.43
2022-12-18T17:41:26.069Z,4.50
2022-12-18T17:43:53.773Z,4.65
2022-12-18T17:46:21.567Z,5.03
2022-12-18T17:48:49.461Z,5.53
2022-12-18T17:51:19.101Z,5.03
2022-12-18T17:53:48.007Z,5.07
2022-12-18T17:56:16.661Z,4.70
2022-12-18T17:58:48.041Z,4.90
2022-12-18T18:01:20.187Z,4.22
2022-12-18T18:03:50.760Z,5.32
2022-12-18T18:06:26.823Z,5.78
2022-12-18T18:08:56.407Z,4.10
2022-12-18T18:11:42.339Z,4.50
2022-12-18T18:14:14.895Z,4.72
2022-12-18T18:16:43.997Z,5.47
2022-12-18T18:19:24.488Z,5.03
2022-12-18T18:21:52.755Z,4.90
2022-12-18T18:24:23.351Z,5.13
2022-12-18T18:26:51.131Z,4.55
2022-12-18T18:29:22.380Z,5.40
2022-12-18T18:31:50.684Z,5.07
2022-12-18T18:34:19.619Z,5.07
2022-12-18T18:36:47.267Z,5.50
2022-12-18T18:39:15.044Z,5.57
2022-12-18T18:41:46.856Z,5.07
2022-12-18T18:44:19.459Z,5.88
2022-12-18T18:46:59.310Z,5.45
2022-12-18T18:49:37.218Z,6.13
2022-12-18T18:52:07.144Z,5.05
2022-12-18T18:54:34.780Z,4.82
2022-12-18T18:57:23.378Z,5.13
2022-12-18T18:59:55.088Z,4.90
2022-12-18T19:02:27.283Z,4.95
2022-12-18T19:04:55.013Z,4.22
2022-12-18T19:07:30.637Z,4.97
2022-12-18T19:10:04.787Z,6.00
2022-12-18T19:12:50.902Z,5.13
2022-12-18T19:15:18.576Z,4.88
2022-12-18T19:17:50.347Z,4.70
2022-12-18T19:20:18.619Z,6.22
2022-12-18T19:22:48.998Z,4.75
2022-12-18T19:25:26.953Z,6.32
2022-12-18T19:28:10.035Z,4.95
2022-12-18T19:30:58.852Z,4.53
2022-12-18T19:33:43.744Z,5.28
2022-12-18T19:36:13.485Z,5.35
2022-12-18T19:38:52.254Z,5.38
2022-12-18T19:41:23.182Z,5.05
2022-12-18T19:43:51.353Z,5.30
2022-12-18T19:46:20.396Z,4.85
2022-12-18T19:48:49.937Z,5.75
2022-12-18T19:51:18.357Z,5.13
2022-12-18T19:53:46.408Z,5.38
2022-12-18T19:56:17.126Z,5.13
2022-12-18T19:58:48.787Z,5.85
2022-12-18T20:01:17.252Z,4.80
2022-12-18T20:03:52.281Z,6.05
2022-12-18T20:06:25.797Z,5.32
2022-12-18T20:08:56.823Z,5.80
2022-12-18T20:11:33.256Z,4.95
2022-12-18T20:14:06.677Z,6.60
2022-12-18T20:16:34.257Z,5.70
2022-12-18T20:19:06.288Z,5.35
2022-12-18T20:21:36.129Z,4.82
2022-12-18T20:24:07.052Z,5.43
2022-12-18T20:26:35.867Z,5.07
2022-12-18T20:29:03.463Z,4.93
2022-12-18T20:31:36.651Z,4.53
2022-12-18T20:34:11.157Z,5.43
2022-12-18T20:36:41.088Z,5.63
2022-12-18T20:39:13.389Z,5.88
2022-12-18T20:41:41.918Z,4.50
2022-12-18T20:44:21.650Z,5.05
2022-12-18T20:46:54.233Z,4.97
2022-12-18T20:49:24.325Z,5.85
2022-12-18T20:51:56.292Z,5.28
2022-12-18T20:54:25.197Z,5.40
2022-12-18T20:56:52.769Z,4.97
2022-12-18T20:59:27.661Z,5.90
2022-12-18T21:01:58.462Z,5.13
2022-12-18T21:04:31.025Z,6.20
2022-12-18T21:07:02.610Z,5.28
2022-12-18T21:09:37.549Z,4.68
2022-12-18T21:12:24.144Z,5.75
2022-12-18T21:14:53.830Z,5.40
2022-12-18T21:17:21.272Z,5.05
2022-12-18T21:19:50.946Z,5.40
2022-12-18T21:22:20.732Z,5.43
2022-12-18T21:24:49.760Z,5.90
2022-12-18T21:27:19.861Z,5.38
2022-12-18T21:29:52.667Z,5.28
2022-12-18T21:32:33.408Z,5.57
2022-12-18T21:35:22.109Z,4.47
2022-12-18T21:37:55.520Z,5.45
2022-12-18T21:40:23.143Z,5.03
2022-12-18T21:43:08.143Z,4.78
2022-12-18T21:45:35.862Z,5.70
2022-12-18T21:48:03.852Z,5.65
2022-12-18T21:50:31.509Z,5.60
2022-12-18T21:53:03.589Z,5.40
2022-12-18T21:55:33.265Z,4.60
2022-12-18T21:58:03.659Z,4.80
2022-12-18T22:00:31.563Z,6.07
2022-12-18T22:03:18.447Z,6.15
2022-12-18T22:05:47.562Z,4.85
2022-12-18T22:08:20.270Z,5.10
2022-12-18T22:10:48.191Z,4.72
2022-12-18T22:13:16.148Z,4.68
2022-12-18T22:15:45.970Z,5.40
2022-12-18T22:18:13.491Z,4.47
2022-12-18T22:20:41.014Z,5.05
2022-12-18T22:23:09.324Z,5.30
2022-12-18T22:25:39.882Z,4.53
2022-12-18T22:28:25.047Z,6.18
2022-12-18T22:30:53.385Z,5.40
2022-12-18T22:33:27.102Z,5.28
2022-12-18T22:35:54.651Z,5.13
2022-12-18T22:38:28.763Z,5.40
2022-12-18T22:40:59.684Z,5.65
2022-12-18T22:43:28.399Z,4.22
2022-12-18T22:45:56.011Z,4.45
2022-12-18T22:48:23.589Z,5.60
2022-12-18T22:50:55.941Z,6.25
2022-12-18T22:53:28.624Z,4.68
2022-12-18T22:56:04.502Z,5.18
2022-12-18T22:58:32.100Z,6.10
2022-12-18T23:01:01.891Z,6.18
2022-12-18T23:03:31.409Z,5.45
2022-12-18T23:06:04.659Z,5.30
2022-12-18T23:08:32.169Z,4.53
2022-12-18T23:11:01.572Z,4.25
2022-12-18T23:13:30.629Z,6.80
2022-12-18T23:15:58.147Z,6.60
2022-12-18T23:18:25.710Z,6.45
2022-12-18T23:20:53.587Z,5.50
2022-12-18T23:23:24.378Z,5.35
2022-12-18T23:25:51.954Z,5.15
2022-12-18T23:28:19.602Z,5.28
2022-12-18T23:30:48.473Z,5.15
2022-12-18T23:33:16.264Z,4.68
2022-12-18T23:35:43.968Z,4.75
2022-12-18T23:38:11.487Z,3.92
2022-12-18T23:40:38.964Z,4.97
2022-12-18T23:43:06.472Z,6.60
2022-12-18T23:45:37.736Z,4.93
2022-12-18T23:48:07.172Z,5.03
2022-12-18T23:50:35.822Z,4.90
2022-12-18T23:53:05.928Z,4.75
2022-12-18T23:55:34.412Z,5.40
2022-12-18T23:58:02.296Z,4.68
